sensor_id;sensor_type;location;lat;lon;timestamp;P1;durP1;ratioP1;P2;durP2;ratioP2
68866;SDS011;56451;44.804;20.476;2023-03-01T00:01:45;58.63;;;23.63;;
68866;SDS011;56451;44.804;20.476;2023-03-01T00:04:11;62.83;;;24.25;;
68866;SDS011;56451;44.804;20.476;2023-03-01T00:06:37;65.13;;;24.60;;
68866;SDS011;56451;44.804;20.476;2023-03-01T00:09:03;70.68;;;25.58;;
68866;SDS011;56451;44.804;20.476;2023-03-01T00:11:30;63.17;;;23.10;;
68866;SDS011;56451;44.804;20.476;2023-03-01T00:13:58;66.20;;;25.30;;
68866;SDS011;56451;44.804;20.476;2023-03-01T00:16:27;60.00;;;22.85;;
68866;SDS011;56451;44.804;20.476;2023-03-01T00:19:02;68.05;;;24.42;;
68866;SDS011;56451;44.804;20.476;2023-03-01T00:21:29;63.03;;;23.55;;
68866;SDS011;56451;44.804;20.476;2023-03-01T00:23:55;68.13;;;24.37;;
68866;SDS011;56451;44.804;20.476;2023-03-01T00:26:22;68.30;;;23.55;;
68866;SDS011;56451;44.804;20.476;2023-03-01T00:28:50;59.83;;;23.52;;
68866;SDS011;56451;44.804;20.476;2023-03-01T00:31:20;58.00;;;22.75;;
68866;SDS011;56451;44.804;20.476;2023-03-01T00:33:48;62.83;;;23.25;;
68866;SDS011;56451;44.804;20.476;2023-03-01T00:36:28;74.27;;;22.83;;
68866;SDS011;56451;44.804;20.476;2023-03-01T00:38:59;68.38;;;23.25;;
68866;SDS011;56451;44.804;20.476;2023-03-01T00:41:26;65.85;;;23.50;;
68866;SDS011;56451;44.804;20.476;2023-03-01T00:43:52;75.55;;;24.67;;
68866;SDS011;56451;44.804;20.476;2023-03-01T00:46:20;65.75;;;22.95;;
68866;SDS011;56451;44.804;20.476;2023-03-01T00:48:48;70.13;;;26.13;;
68866;SDS011;56451;44.804;20.476;2023-03-01T00:51:16;70.97;;;25.10;;
68866;SDS011;56451;44.804;20.476;2023-03-01T00:53:44;63.53;;;23.75;;
68866;SDS011;56451;44.804;20.476;2023-03-01T00:56:12;69.70;;;24.02;;
68866;SDS011;56451;44.804;20.476;2023-03-01T00:58:42;70.57;;;26.20;;
68866;SDS011;56451;44.804;20.476;2023-03-01T01:01:20;76.80;;;24.60;;
68866;SDS011;56451;44.804;20.476;2023-03-01T01:03:53;71.80;;;25.05;;
68866;SDS011;56451;44.804;20.476;2023-03-01T01:06:37;67.03;;;24.42;;
68866;SDS011;56451;44.804;20.476;2023-03-01T01:09:14;72.75;;;24.63;;
68866;SDS011;56451;44.804;20.476;2023-03-01T01:14:39;69.33;;;24.03;;
68866;SDS011;56451;44.804;20.476;2023-03-01T01:17:11;65.25;;;24.17;;
68866;SDS011;56451;44.804;20.476;2023-03-01T01:19:42;72.07;;;25.45;;
68866;SDS011;56451;44.804;20.476;2023-03-01T01:22:12;93.32;;;31.42;;
68866;SDS011;56451;44.804;20.476;2023-03-01T01:24:38;90.07;;;32.33;;
68866;SDS011;56451;44.804;20.476;2023-03-01T01:27:07;80.85;;;28.67;;
68866;SDS011;56451;44.804;20.476;2023-03-01T01:29:42;89.47;;;30.85;;
68866;SDS011;56451;44.804;20.476;2023-03-01T01:32:19;89.47;;;30.02;;
68866;SDS011;56451;44.804;20.476;2023-03-01T01:34:50;89.63;;;31.30;;
68866;SDS011;56451;44.804;20.476;2023-03-01T01:37:22;83.55;;;30.23;;
68866;SDS011;56451;44.804;20.476;2023-03-01T01:39:57;81.93;;;29.13;;
68866;SDS011;56451;44.804;20.476;2023-03-01T01:42:26;93.65;;;31.98;;
68866;SDS011;56451;44.804;20.476;2023-03-01T01:47:59;84.68;;;28.77;;
68866;SDS011;56451;44.804;20.476;2023-03-01T01:50:34;81.70;;;29.23;;
68866;SDS011;56451;44.804;20.476;2023-03-01T01:53:15;78.78;;;29.63;;
68866;SDS011;56451;44.804;20.476;2023-03-01T01:55:45;72.78;;;27.45;;
68866;SDS011;56451;44.804;20.476;2023-03-01T01:58:15;72.35;;;27.30;;
68866;SDS011;56451;44.804;20.476;2023-03-01T02:00:51;65.72;;;25.52;;
68866;SDS011;56451;44.804;20.476;2023-03-01T02:03:26;72.30;;;28.33;;
68866;SDS011;56451;44.804;20.476;2023-03-01T02:06:29;79.88;;;29.08;;
68866;SDS011;56451;44.804;20.476;2023-03-01T02:09:01;69.32;;;27.40;;
68866;SDS011;56451;44.804;20.476;2023-03-01T02:11:33;81.68;;;29.33;;
68866;SDS011;56451;44.804;20.476;2023-03-01T02:14:11;70.75;;;26.85;;
68866;SDS011;56451;44.804;20.476;2023-03-01T02:16:38;72.25;;;27.80;;
68866;SDS011;56451;44.804;20.476;2023-03-01T02:19:05;78.00;;;28.33;;
68866;SDS011;56451;44.804;20.476;2023-03-01T02:21:57;83.15;;;28.60;;
68866;SDS011;56451;44.804;20.476;2023-03-01T02:27:36;70.30;;;26.33;;
68866;SDS011;56451;44.804;20.476;2023-03-01T02:30:18;71.78;;;26.48;;
68866;SDS011;56451;44.804;20.476;2023-03-01T02:32:47;75.05;;;27.50;;
68866;SDS011;56451;44.804;20.476;2023-03-01T02:35:20;66.07;;;26.63;;
68866;SDS011;56451;44.804;20.476;2023-03-01T02:37:50;73.68;;;28.33;;
68866;SDS011;56451;44.804;20.476;2023-03-01T02:40:20;71.93;;;28.48;;
68866;SDS011;56451;44.804;20.476;2023-03-01T02:42:54;67.40;;;27.65;;
68866;SDS011;56451;44.804;20.476;2023-03-01T02:45:26;67.88;;;28.30;;
68866;SDS011;56451;44.804;20.476;2023-03-01T02:48:02;70.28;;;29.05;;
68866;SDS011;56451;44.804;20.476;2023-03-01T02:53:08;64.53;;;27.40;;
68866;SDS011;56451;44.804;20.476;2023-03-01T02:55:58;59.80;;;26.63;;
68866;SDS011;56451;44.804;20.476;2023-03-01T02:58:28;68.35;;;27.98;;
68866;SDS011;56451;44.804;20.476;2023-03-01T03:01:01;69.53;;;28.92;;
68866;SDS011;56451;44.804;20.476;2023-03-01T03:03:29;65.75;;;27.75;;
68866;SDS011;56451;44.804;20.476;2023-03-01T03:05:59;64.70;;;28.50;;
68866;SDS011;56451;44.804;20.476;2023-03-01T03:08:29;68.50;;;28.83;;
68866;SDS011;56451;44.804;20.476;2023-03-01T03:10:55;68.35;;;30.00;;
68866;SDS011;56451;44.804;20.476;2023-03-01T03:13:36;64.18;;;28.90;;
68866;SDS011;56451;44.804;20.476;2023-03-01T03:16:18;57.90;;;27.13;;
68866;SDS011;56451;44.804;20.476;2023-03-01T03:18:56;58.70;;;28.58;;
68866;SDS011;56451;44.804;20.476;2023-03-01T03:21:37;62.67;;;27.75;;
68866;SDS011;56451;44.804;20.476;2023-03-01T03:24:11;60.75;;;28.15;;
68866;SDS011;56451;44.804;20.476;2023-03-01T03:26:38;58.67;;;28.77;;
68866;SDS011;56451;44.804;20.476;2023-03-01T03:29:10;63.30;;;28.77;;
68866;SDS011;56451;44.804;20.476;2023-03-01T03:31:42;59.67;;;28.42;;
68866;SDS011;56451;44.804;20.476;2023-03-01T03:34:17;56.00;;;26.40;;
68866;SDS011;56451;44.804;20.476;2023-03-01T03:36:55;55.38;;;26.65;;
68866;SDS011;56451;44.804;20.476;2023-03-01T03:39:27;55.50;;;27.83;;
68866;SDS011;56451;44.804;20.476;2023-03-01T03:41:58;55.35;;;27.05;;
68866;SDS011;56451;44.804;20.476;2023-03-01T03:44:33;56.90;;;27.88;;
68866;SDS011;56451;44.804;20.476;2023-03-01T03:47:06;51.10;;;26.65;;
68866;SDS011;56451;44.804;20.476;2023-03-01T03:49:41;48.28;;;25.48;;
68866;SDS011;56451;44.804;20.476;2023-03-01T03:52:16;51.20;;;25.17;;
68866;SDS011;56451;44.804;20.476;2023-03-01T03:54:50;48.90;;;25.33;;
68866;SDS011;56451;44.804;20.476;2023-03-01T03:57:19;51.60;;;25.75;;
68866;SDS011;56451;44.804;20.476;2023-03-01T03:59:53;51.60;;;25.70;;
68866;SDS011;56451;44.804;20.476;2023-03-01T04:02:26;53.60;;;25.65;;
68866;SDS011;56451;44.804;20.476;2023-03-01T04:04:54;56.80;;;27.15;;
68866;SDS011;56451;44.804;20.476;2023-03-01T04:07:35;55.05;;;28.48;;
68866;SDS011;56451;44.804;20.476;2023-03-01T04:10:10;58.33;;;27.95;;
68866;SDS011;56451;44.804;20.476;2023-03-01T04:12:41;50.40;;;25.90;;
68866;SDS011;56451;44.804;20.476;2023-03-01T04:15:17;52.42;;;26.08;;
68866;SDS011;56451;44.804;20.476;2023-03-01T04:17:51;55.38;;;27.13;;
68866;SDS011;56451;44.804;20.476;2023-03-01T04:20:33;51.60;;;26.42;;
68866;SDS011;56451;44.804;20.476;2023-03-01T04:23:06;52.63;;;27.42;;
68866;SDS011;56451;44.804;20.476;2023-03-01T04:25:45;49.53;;;26.95;;
68866;SDS011;56451;44.804;20.476;2023-03-01T04:28:25;55.17;;;27.80;;
68866;SDS011;56451;44.804;20.476;2023-03-01T04:31:06;55.95;;;27.25;;
68866;SDS011;56451;44.804;20.476;2023-03-01T04:33:52;50.00;;;26.20;;
68866;SDS011;56451;44.804;20.476;2023-03-01T04:36:25;51.40;;;26.92;;
68866;SDS011;56451;44.804;20.476;2023-03-01T04:39:06;52.08;;;28.02;;
68866;SDS011;56451;44.804;20.476;2023-03-01T04:41:41;52.03;;;26.50;;
68866;SDS011;56451;44.804;20.476;2023-03-01T04:44:20;53.03;;;27.42;;
68866;SDS011;56451;44.804;20.476;2023-03-01T04:46:51;51.55;;;27.40;;
68866;SDS011;56451;44.804;20.476;2023-03-01T04:49:19;54.50;;;27.05;;
68866;SDS011;56451;44.804;20.476;2023-03-01T04:51:46;49.22;;;27.58;;
68866;SDS011;56451;44.804;20.476;2023-03-01T04:54:17;52.50;;;28.90;;
68866;SDS011;56451;44.804;20.476;2023-03-01T04:56:45;53.70;;;29.98;;
68866;SDS011;56451;44.804;20.476;2023-03-01T04:59:18;51.55;;;27.90;;
68866;SDS011;56451;44.804;20.476;2023-03-01T05:01:52;49.78;;;26.25;;
68866;SDS011;56451;44.804;20.476;2023-03-01T05:07:24;49.47;;;25.77;;
68866;SDS011;56451;44.804;20.476;2023-03-01T05:09:55;45.17;;;24.08;;
68866;SDS011;56451;44.804;20.476;2023-03-01T05:12:22;44.92;;;24.98;;
68866;SDS011;56451;44.804;20.476;2023-03-01T05:14:52;43.92;;;24.67;;
68866;SDS011;56451;44.804;20.476;2023-03-01T05:17:23;47.35;;;25.77;;
68866;SDS011;56451;44.804;20.476;2023-03-01T05:19:58;46.70;;;24.55;;
68866;SDS011;56451;44.804;20.476;2023-03-01T05:22:38;47.33;;;26.00;;
68866;SDS011;56451;44.804;20.476;2023-03-01T05:25:06;44.15;;;23.80;;
68866;SDS011;56451;44.804;20.476;2023-03-01T05:27:35;47.28;;;25.40;;
68866;SDS011;56451;44.804;20.476;2023-03-01T05:30:07;40.22;;;22.75;;
68866;SDS011;56451;44.804;20.476;2023-03-01T05:32:45;40.40;;;21.42;;
68866;SDS011;56451;44.804;20.476;2023-03-01T05:35:18;40.60;;;21.17;;
68866;SDS011;56451;44.804;20.476;2023-03-01T05:37:56;40.65;;;21.80;;
68866;SDS011;56451;44.804;20.476;2023-03-01T05:40:32;42.65;;;21.17;;
68866;SDS011;56451;44.804;20.476;2023-03-01T05:43:06;40.88;;;21.33;;
68866;SDS011;56451;44.804;20.476;2023-03-01T05:45:37;41.65;;;21.70;;
68866;SDS011;56451;44.804;20.476;2023-03-01T05:48:13;37.25;;;21.30;;
68866;SDS011;56451;44.804;20.476;2023-03-01T05:50:46;42.75;;;21.38;;
68866;SDS011;56451;44.804;20.476;2023-03-01T05:53:19;38.55;;;21.52;;
68866;SDS011;56451;44.804;20.476;2023-03-01T05:55:59;35.50;;;20.42;;
68866;SDS011;56451;44.804;20.476;2023-03-01T05:58:40;39.25;;;19.73;;
68866;SDS011;56451;44.804;20.476;2023-03-01T06:01:12;37.75;;;19.98;;
68866;SDS011;56451;44.804;20.476;2023-03-01T06:03:41;33.67;;;18.42;;
68866;SDS011;56451;44.804;20.476;2023-03-01T06:06:18;29.48;;;17.20;;
68866;SDS011;56451;44.804;20.476;2023-03-01T06:08:56;29.92;;;16.80;;
68866;SDS011;56451;44.804;20.476;2023-03-01T06:11:26;29.58;;;16.77;;
68866;SDS011;56451;44.804;20.476;2023-03-01T06:13:59;33.63;;;17.50;;
68866;SDS011;56451;44.804;20.476;2023-03-01T06:16:27;31.33;;;16.88;;
68866;SDS011;56451;44.804;20.476;2023-03-01T06:19:02;31.75;;;15.55;;
68866;SDS011;56451;44.804;20.476;2023-03-01T06:21:41;30.50;;;15.35;;
68866;SDS011;56451;44.804;20.476;2023-03-01T06:24:12;28.23;;;13.88;;
68866;SDS011;56451;44.804;20.476;2023-03-01T06:26:41;26.50;;;15.30;;
68866;SDS011;56451;44.804;20.476;2023-03-01T06:29:15;27.42;;;14.30;;
68866;SDS011;56451;44.804;20.476;2023-03-01T06:31:48;27.77;;;14.05;;
68866;SDS011;56451;44.804;20.476;2023-03-01T06:34:19;23.63;;;13.15;;
68866;SDS011;56451;44.804;20.476;2023-03-01T06:36:47;22.83;;;12.45;;
68866;SDS011;56451;44.804;20.476;2023-03-01T06:39:27;21.90;;;12.07;;
68866;SDS011;56451;44.804;20.476;2023-03-01T06:42:09;23.52;;;11.27;;
68866;SDS011;56451;44.804;20.476;2023-03-01T06:44:36;17.95;;;9.77;;
68866;SDS011;56451;44.804;20.476;2023-03-01T06:47:10;17.67;;;10.57;;
68866;SDS011;56451;44.804;20.476;2023-03-01T06:49:41;19.85;;;10.27;;
68866;SDS011;56451;44.804;20.476;2023-03-01T06:52:14;21.02;;;10.65;;
68866;SDS011;56451;44.804;20.476;2023-03-01T06:54:45;20.38;;;9.70;;
68866;SDS011;56451;44.804;20.476;2023-03-01T06:57:17;25.60;;;11.57;;
68866;SDS011;56451;44.804;20.476;2023-03-01T07:00:04;23.00;;;10.25;;
68866;SDS011;56451;44.804;20.476;2023-03-01T07:02:43;22.20;;;9.88;;
68866;SDS011;56451;44.804;20.476;2023-03-01T07:05:25;17.23;;;9.98;;
68866;SDS011;56451;44.804;20.476;2023-03-01T07:08:17;17.67;;;10.13;;
68866;SDS011;56451;44.804;20.476;2023-03-01T07:10:56;20.05;;;10.85;;
68866;SDS011;56451;44.804;20.476;2023-03-01T07:13:24;20.60;;;9.93;;
68866;SDS011;56451;44.804;20.476;2023-03-01T07:15:52;17.90;;;9.55;;
68866;SDS011;56451;44.804;20.476;2023-03-01T07:18:19;19.60;;;9.93;;
68866;SDS011;56451;44.804;20.476;2023-03-01T07:20:46;19.02;;;9.73;;
68866;SDS011;56451;44.804;20.476;2023-03-01T07:23:20;21.25;;;10.40;;
68866;SDS011;56451;44.804;20.476;2023-03-01T07:25:54;21.50;;;10.52;;
68866;SDS011;56451;44.804;20.476;2023-03-01T07:28:24;20.35;;;11.30;;
68866;SDS011;56451;44.804;20.476;2023-03-01T07:30:51;24.70;;;12.02;;
68866;SDS011;56451;44.804;20.476;2023-03-01T07:33:18;22.63;;;11.75;;
68866;SDS011;56451;44.804;20.476;2023-03-01T07:35:45;23.90;;;12.02;;
68866;SDS011;56451;44.804;20.476;2023-03-01T07:38:13;24.23;;;12.20;;
68866;SDS011;56451;44.804;20.476;2023-03-01T07:40:40;27.85;;;11.48;;
68866;SDS011;56451;44.804;20.476;2023-03-01T07:43:10;33.88;;;12.82;;
68866;SDS011;56451;44.804;20.476;2023-03-01T07:45:41;19.98;;;9.93;;
68866;SDS011;56451;44.804;20.476;2023-03-01T07:48:10;19.45;;;9.90;;
68866;SDS011;56451;44.804;20.476;2023-03-01T07:50:42;18.95;;;9.20;;
68866;SDS011;56451;44.804;20.476;2023-03-01T07:53:21;18.02;;;8.90;;
68866;SDS011;56451;44.804;20.476;2023-03-01T07:55:49;17.55;;;9.10;;
68866;SDS011;56451;44.804;20.476;2023-03-01T07:58:28;26.80;;;9.70;;
68866;SDS011;56451;44.804;20.476;2023-03-01T08:00:54;16.55;;;8.85;;
68866;SDS011;56451;44.804;20.476;2023-03-01T08:03:21;16.17;;;8.55;;
68866;SDS011;56451;44.804;20.476;2023-03-01T08:05:47;19.48;;;9.90;;
68866;SDS011;56451;44.804;20.476;2023-03-01T08:08:13;16.83;;;8.18;;
68866;SDS011;56451;44.804;20.476;2023-03-01T08:10:46;18.67;;;8.02;;
68866;SDS011;56451;44.804;20.476;2023-03-01T08:13:12;15.05;;;7.35;;
68866;SDS011;56451;44.804;20.476;2023-03-01T08:15:40;16.40;;;8.23;;
68866;SDS011;56451;44.804;20.476;2023-03-01T08:18:07;16.63;;;8.27;;
68866;SDS011;56451;44.804;20.476;2023-03-01T08:20:34;14.43;;;7.72;;
68866;SDS011;56451;44.804;20.476;2023-03-01T08:23:02;15.52;;;7.95;;
68866;SDS011;56451;44.804;20.476;2023-03-01T08:25:29;13.15;;;7.72;;
68866;SDS011;56451;44.804;20.476;2023-03-01T08:27:56;14.88;;;6.82;;
68866;SDS011;56451;44.804;20.476;2023-03-01T08:30:33;13.20;;;7.00;;
68866;SDS011;56451;44.804;20.476;2023-03-01T08:33:01;12.38;;;7.50;;
68866;SDS011;56451;44.804;20.476;2023-03-01T08:35:28;13.20;;;6.72;;
68866;SDS011;56451;44.804;20.476;2023-03-01T08:37:55;12.95;;;6.70;;
68866;SDS011;56451;44.804;20.476;2023-03-01T08:40:21;18.60;;;7.05;;
68866;SDS011;56451;44.804;20.476;2023-03-01T08:42:49;13.70;;;6.10;;
68866;SDS011;56451;44.804;20.476;2023-03-01T08:45:16;9.90;;;5.80;;
68866;SDS011;56451;44.804;20.476;2023-03-01T08:47:50;9.77;;;5.82;;
68866;SDS011;56451;44.804;20.476;2023-03-01T08:50:19;18.85;;;6.00;;
68866;SDS011;56451;44.804;20.476;2023-03-01T08:52:47;11.10;;;5.57;;
68866;SDS011;56451;44.804;20.476;2023-03-01T08:55:13;11.52;;;5.45;;
68866;SDS011;56451;44.804;20.476;2023-03-01T08:57:42;11.57;;;5.50;;
68866;SDS011;56451;44.804;20.476;2023-03-01T09:00:09;8.95;;;5.32;;
68866;SDS011;56451;44.804;20.476;2023-03-01T09:02:46;13.90;;;5.00;;
68866;SDS011;56451;44.804;20.476;2023-03-01T09:05:13;10.48;;;4.93;;
68866;SDS011;56451;44.804;20.476;2023-03-01T09:07:42;8.60;;;4.35;;
68866;SDS011;56451;44.804;20.476;2023-03-01T09:10:10;5.82;;;3.53;;
68866;SDS011;56451;44.804;20.476;2023-03-01T09:12:37;7.97;;;4.10;;
68866;SDS011;56451;44.804;20.476;2023-03-01T09:15:04;8.02;;;4.30;;
68866;SDS011;56451;44.804;20.476;2023-03-01T09:17:32;12.32;;;5.43;;
68866;SDS011;56451;44.804;20.476;2023-03-01T09:19:59;7.70;;;3.63;;
68866;SDS011;56451;44.804;20.476;2023-03-01T09:22:34;9.27;;;4.38;;
68866;SDS011;56451;44.804;20.476;2023-03-01T09:25:02;11.10;;;5.15;;
68866;SDS011;56451;44.804;20.476;2023-03-01T09:27:30;9.52;;;4.30;;
68866;SDS011;56451;44.804;20.476;2023-03-01T09:29:57;6.88;;;3.78;;
68866;SDS011;56451;44.804;20.476;2023-03-01T09:32:24;11.65;;;5.10;;
68866;SDS011;56451;44.804;20.476;2023-03-01T09:34:51;10.13;;;4.78;;
68866;SDS011;56451;44.804;20.476;2023-03-01T09:37:31;9.25;;;4.15;;
68866;SDS011;56451;44.804;20.476;2023-03-01T09:40:00;8.15;;;3.75;;
68866;SDS011;56451;44.804;20.476;2023-03-01T09:42:31;10.60;;;4.60;;
68866;SDS011;56451;44.804;20.476;2023-03-01T09:45:06;9.60;;;4.80;;
68866;SDS011;56451;44.804;20.476;2023-03-01T09:47:45;8.10;;;4.10;;
68866;SDS011;56451;44.804;20.476;2023-03-01T09:50:16;12.20;;;6.13;;
68866;SDS011;56451;44.804;20.476;2023-03-01T09:55:39;8.10;;;4.30;;
68866;SDS011;56451;44.804;20.476;2023-03-01T10:06:39;6.90;;;3.50;;
68866;SDS011;56451;44.804;20.476;2023-03-01T10:09:16;5.47;;;3.20;;
68866;SDS011;56451;44.804;20.476;2023-03-01T10:11:52;7.75;;;3.35;;
68866;SDS011;56451;44.804;20.476;2023-03-01T10:15:00;5.65;;;3.30;;
68866;SDS011;56451;44.804;20.476;2023-03-01T10:17:37;8.23;;;3.30;;
68866;SDS011;56451;44.804;20.476;2023-03-01T10:20:18;6.00;;;3.25;;
68866;SDS011;56451;44.804;20.476;2023-03-01T10:22:54;15.27;;;6.63;;
68866;SDS011;56451;44.804;20.476;2023-03-01T10:25:36;9.63;;;5.10;;
68866;SDS011;56451;44.804;20.476;2023-03-01T10:28:07;15.00;;;10.63;;
68866;SDS011;56451;44.804;20.476;2023-03-01T10:30:42;6.03;;;3.92;;
68866;SDS011;56451;44.804;20.476;2023-03-01T10:33:29;7.70;;;4.13;;
68866;SDS011;56451;44.804;20.476;2023-03-01T10:36:03;6.95;;;3.55;;
68866;SDS011;56451;44.804;20.476;2023-03-01T10:38:30;6.45;;;3.90;;
68866;SDS011;56451;44.804;20.476;2023-03-01T10:41:18;7.63;;;4.57;;
68866;SDS011;56451;44.804;20.476;2023-03-01T10:43:53;5.82;;;3.95;;
68866;SDS011;56451;44.804;20.476;2023-03-01T10:46:30;8.48;;;3.60;;
68866;SDS011;56451;44.804;20.476;2023-03-01T10:49:12;8.82;;;3.53;;
68866;SDS011;56451;44.804;20.476;2023-03-01T10:51:49;6.82;;;3.97;;
68866;SDS011;56451;44.804;20.476;2023-03-01T10:56:59;6.22;;;3.38;;
68866;SDS011;56451;44.804;20.476;2023-03-01T10:59:31;7.25;;;4.45;;
68866;SDS011;56451;44.804;20.476;2023-03-01T11:05:39;5.68;;;3.28;;
68866;SDS011;56451;44.804;20.476;2023-03-01T11:07:54;5.00;;;2.97;;
68866;SDS011;56451;44.804;20.476;2023-03-01T11:10:35;8.32;;;3.40;;
68866;SDS011;56451;44.804;20.476;2023-03-01T11:13:17;8.13;;;3.47;;
68866;SDS011;56451;44.804;20.476;2023-03-01T11:15:58;7.37;;;4.23;;
68866;SDS011;56451;44.804;20.476;2023-03-01T11:18:31;6.05;;;3.50;;
68866;SDS011;56451;44.804;20.476;2023-03-01T11:20:58;9.35;;;3.63;;
68866;SDS011;56451;44.804;20.476;2023-03-01T11:23:30;6.45;;;3.45;;
68866;SDS011;56451;44.804;20.476;2023-03-01T11:26:05;6.18;;;3.28;;
68866;SDS011;56451;44.804;20.476;2023-03-01T11:28:40;7.38;;;3.97;;
68866;SDS011;56451;44.804;20.476;2023-03-01T11:31:18;11.00;;;3.45;;
68866;SDS011;56451;44.804;20.476;2023-03-01T11:33:55;9.75;;;4.43;;
68866;SDS011;56451;44.804;20.476;2023-03-01T11:36:44;6.65;;;3.75;;
68866;SDS011;56451;44.804;20.476;2023-03-01T11:39:39;6.47;;;3.80;;
68866;SDS011;56451;44.804;20.476;2023-03-01T11:54:41;9.00;;;3.78;;
68866;SDS011;56451;44.804;20.476;2023-03-01T12:00:30;6.72;;;3.33;;
68866;SDS011;56451;44.804;20.476;2023-03-01T12:19:41;7.03;;;3.35;;
68866;SDS011;56451;44.804;20.476;2023-03-01T12:25:24;5.03;;;3.17;;
68866;SDS011;56451;44.804;20.476;2023-03-01T12:28:32;5.43;;;3.10;;
68866;SDS011;56451;44.804;20.476;2023-03-01T12:31:20;6.78;;;3.22;;
68866;SDS011;56451;44.804;20.476;2023-03-01T12:36:49;10.32;;;4.18;;
68866;SDS011;56451;44.804;20.476;2023-03-01T12:39:24;9.60;;;3.73;;
68866;SDS011;56451;44.804;20.476;2023-03-01T12:42:23;6.40;;;3.83;;
68866;SDS011;56451;44.804;20.476;2023-03-01T12:50:03;8.45;;;4.15;;
68866;SDS011;56451;44.804;20.476;2023-03-01T12:52:40;9.17;;;4.87;;
68866;SDS011;56451;44.804;20.476;2023-03-01T12:55:44;9.73;;;4.68;;
68866;SDS011;56451;44.804;20.476;2023-03-01T13:00:41;9.18;;;5.05;;
68866;SDS011;56451;44.804;20.476;2023-03-01T13:06:14;8.47;;;4.30;;
68866;SDS011;56451;44.804;20.476;2023-03-01T13:08:49;14.45;;;4.80;;
68866;SDS011;56451;44.804;20.476;2023-03-01T13:11:26;8.18;;;4.10;;
68866;SDS011;56451;44.804;20.476;2023-03-01T13:14:18;11.00;;;4.22;;
68866;SDS011;56451;44.804;20.476;2023-03-01T13:16:49;10.20;;;4.50;;
68866;SDS011;56451;44.804;20.476;2023-03-01T13:19:18;10.30;;;4.73;;
68866;SDS011;56451;44.804;20.476;2023-03-01T13:21:53;8.00;;;4.20;;
68866;SDS011;56451;44.804;20.476;2023-03-01T13:29:45;6.72;;;3.65;;
68866;SDS011;56451;44.804;20.476;2023-03-01T13:32:23;8.33;;;3.87;;
68866;SDS011;56451;44.804;20.476;2023-03-01T13:34:52;10.40;;;4.70;;
68866;SDS011;56451;44.804;20.476;2023-03-01T13:37:45;5.88;;;3.45;;
68866;SDS011;56451;44.804;20.476;2023-03-01T13:42:50;7.45;;;3.60;;
68866;SDS011;56451;44.804;20.476;2023-03-01T13:45:32;11.37;;;4.87;;
68866;SDS011;56451;44.804;20.476;2023-03-01T13:48:09;7.05;;;4.38;;
68866;SDS011;56451;44.804;20.476;2023-03-01T13:51:03;9.48;;;4.72;;
68866;SDS011;56451;44.804;20.476;2023-03-01T13:53:34;7.10;;;4.45;;
68866;SDS011;56451;44.804;20.476;2023-03-01T13:58:52;8.17;;;5.10;;
68866;SDS011;56451;44.804;20.476;2023-03-01T14:01:32;9.23;;;4.65;;
68866;SDS011;56451;44.804;20.476;2023-03-01T14:04:03;8.98;;;5.40;;
68866;SDS011;56451;44.804;20.476;2023-03-01T14:06:44;9.85;;;5.50;;
68866;SDS011;56451;44.804;20.476;2023-03-01T14:09:16;15.30;;;5.72;;
68866;SDS011;56451;44.804;20.476;2023-03-01T14:17:18;7.32;;;4.35;;
68866;SDS011;56451;44.804;20.476;2023-03-01T14:20:16;7.18;;;4.63;;
68866;SDS011;56451;44.804;20.476;2023-03-01T14:22:53;9.07;;;4.40;;
68866;SDS011;56451;44.804;20.476;2023-03-01T14:25:28;9.33;;;5.00;;
68866;SDS011;56451;44.804;20.476;2023-03-01T14:28:15;8.70;;;4.85;;
68866;SDS011;56451;44.804;20.476;2023-03-01T14:30:49;9.07;;;5.22;;
68866;SDS011;56451;44.804;20.476;2023-03-01T14:33:26;9.82;;;5.70;;
68866;SDS011;56451;44.804;20.476;2023-03-01T14:36:09;10.88;;;5.60;;
68866;SDS011;56451;44.804;20.476;2023-03-01T14:38:39;9.18;;;5.65;;
68866;SDS011;56451;44.804;20.476;2023-03-01T14:41:12;9.00;;;4.75;;
68866;SDS011;56451;44.804;20.476;2023-03-01T14:43:46;15.95;;;7.78;;
68866;SDS011;56451;44.804;20.476;2023-03-01T14:46:22;18.35;;;10.07;;
68866;SDS011;56451;44.804;20.476;2023-03-01T14:49:01;14.43;;;8.77;;
68866;SDS011;56451;44.804;20.476;2023-03-01T14:51:39;11.57;;;6.50;;
68866;SDS011;56451;44.804;20.476;2023-03-01T14:54:26;11.40;;;5.80;;
68866;SDS011;56451;44.804;20.476;2023-03-01T14:57:12;10.95;;;5.95;;
68866;SDS011;56451;44.804;20.476;2023-03-01T14:59:53;14.02;;;6.50;;
68866;SDS011;56451;44.804;20.476;2023-03-01T15:02:31;10.90;;;6.13;;
68866;SDS011;56451;44.804;20.476;2023-03-01T15:05:06;11.80;;;6.10;;
68866;SDS011;56451;44.804;20.476;2023-03-01T15:07:38;10.77;;;5.85;;
68866;SDS011;56451;44.804;20.476;2023-03-01T15:10:29;12.20;;;6.50;;
68866;SDS011;56451;44.804;20.476;2023-03-01T15:13:10;9.68;;;5.82;;
68866;SDS011;56451;44.804;20.476;2023-03-01T15:15:40;11.43;;;6.40;;
68866;SDS011;56451;44.804;20.476;2023-03-01T15:18:16;17.10;;;8.80;;
68866;SDS011;56451;44.804;20.476;2023-03-01T15:20:53;16.17;;;8.13;;
68866;SDS011;56451;44.804;20.476;2023-03-01T15:23:24;15.73;;;7.90;;
68866;SDS011;56451;44.804;20.476;2023-03-01T15:25:55;17.08;;;7.43;;
68866;SDS011;56451;44.804;20.476;2023-03-01T15:28:28;13.93;;;8.15;;
68866;SDS011;56451;44.804;20.476;2023-03-01T15:31:01;17.90;;;9.10;;
68866;SDS011;56451;44.804;20.476;2023-03-01T15:33:49;14.77;;;7.22;;
68866;SDS011;56451;44.804;20.476;2023-03-01T15:39:52;19.60;;;10.02;;
68866;SDS011;56451;44.804;20.476;2023-03-01T15:47:51;13.18;;;7.38;;
68866;SDS011;56451;44.804;20.476;2023-03-01T15:50:22;14.60;;;7.45;;
68866;SDS011;56451;44.804;20.476;2023-03-01T15:52:51;14.98;;;7.45;;
68866;SDS011;56451;44.804;20.476;2023-03-01T15:55:20;12.30;;;7.50;;
68866;SDS011;56451;44.804;20.476;2023-03-01T15:58:03;12.37;;;7.20;;
68866;SDS011;56451;44.804;20.476;2023-03-01T16:00:39;11.75;;;6.38;;
68866;SDS011;56451;44.804;20.476;2023-03-01T16:03:08;11.55;;;6.15;;
68866;SDS011;56451;44.804;20.476;2023-03-01T16:05:38;13.95;;;7.43;;
68866;SDS011;56451;44.804;20.476;2023-03-01T16:08:05;13.18;;;6.18;;
68866;SDS011;56451;44.804;20.476;2023-03-01T16:10:33;11.83;;;7.00;;
68866;SDS011;56451;44.804;20.476;2023-03-01T16:13:02;13.57;;;6.95;;
68866;SDS011;56451;44.804;20.476;2023-03-01T16:15:29;15.48;;;8.00;;
68866;SDS011;56451;44.804;20.476;2023-03-01T16:17:58;15.52;;;7.93;;
68866;SDS011;56451;44.804;20.476;2023-03-01T16:20:27;14.65;;;7.93;;
68866;SDS011;56451;44.804;20.476;2023-03-01T16:22:57;16.25;;;7.88;;
68866;SDS011;56451;44.804;20.476;2023-03-01T16:25:26;15.60;;;7.25;;
68866;SDS011;56451;44.804;20.476;2023-03-01T16:27:54;13.95;;;7.30;;
68866;SDS011;56451;44.804;20.476;2023-03-01T16:30:34;12.88;;;7.63;;
68866;SDS011;56451;44.804;20.476;2023-03-01T16:33:02;13.85;;;6.95;;
68866;SDS011;56451;44.804;20.476;2023-03-01T16:35:33;11.68;;;6.88;;
68866;SDS011;56451;44.804;20.476;2023-03-01T16:38:00;11.98;;;6.82;;
68866;SDS011;56451;44.804;20.476;2023-03-01T16:40:28;14.57;;;7.32;;
68866;SDS011;56451;44.804;20.476;2023-03-01T16:42:56;14.52;;;7.22;;